NATIONAL KEY DEER NWR FL US current weather conditions

sailwx.info

Air temperature 24.4° C
Dewpoint 22.1° C

Last reported at 2016-May-24 03:38 UTC.
Time now 2016-May-24 06:04 UTC

Location: N 24°43' W 081°23'.
View on Google Maps.

See reports from other nearby stations

  
Tides and Currents Weather Stations Pressure Air Temp Water Temp Dewpoint Dewpoint Depression Visibility Wind Speed Wind Dir Waves Ship Positions
date/time (UTC)wind fromknots sea level pressurealtimeterstation pressurevisibilityair tempwater tempwave heightnotes
2016-May-24 03:38 24.4
2016-May-24 02:38 25.0
2016-May-24 01:38 164 3 gusting 4 26.7
2016-May-24 00:38 26.7
2016-May-23 23:38 28.9
2016-May-23 22:38 101 1 gusting 5 28.9
2016-May-23 21:38 044 2 gusting 6 30.6
2016-May-23 20:38 055 3 gusting 7 31.1
2016-May-23 19:38 050 4 gusting 8 29.4
2016-May-23 18:38 050 6 gusting 9 30.6
2016-May-23 17:38 060 5 gusting 9 31.1
2016-May-23 16:38 042 4 gusting 7 31.7
2016-May-23 15:38 045 2 gusting 6 29.4
2016-May-23 14:38 061 1 gusting 4 29.4
2016-May-23 13:38 104 1 28.3
2016-May-23 07:38 346 2 gusting 4 24.4
2016-May-23 06:38 318 1 gusting 3 25.0
2016-May-23 05:38 295 1 gusting 4 25.6
2016-May-23 04:38 349 2 gusting 6 26.1
2016-May-23 03:38 347 3 gusting 10 26.1
2016-May-23 02:38 344 4 gusting 8 26.7
2016-May-23 01:38 327 2 gusting 8 26.7
2016-May-23 00:38 329 5 gusting 8 26.7
2016-May-22 23:38 302 4 gusting 9 28.3
2016-May-22 22:38 292 5 gusting 10 30.0
2016-May-22 21:38 335 6 gusting 10 30.0
2016-May-22 20:38 319 5 gusting 12 31.1
2016-May-22 19:38 325 6 gusting 10 30.6
2016-May-22 18:38 319 6 gusting 10 31.1
2016-May-22 17:38 312 6 gusting 10 30.6
2016-May-22 16:38 347 6 gusting 9 31.7
2016-May-22 15:38 316 4 gusting 9 30.0
2016-May-22 14:38 337 6 gusting 10 30.6
2016-May-22 08:38 312 3 gusting 5 25.6
2016-May-22 07:38 319 1 gusting 3 25.6
2016-May-22 06:38 284 0 gusting 6 25.6